sensor_id;sensor_type;location;lat;lon;timestamp;P1;durP1;ratioP1;P2;durP2;ratioP2
20976;SDS011;10647;51.016;3.720;2022-07-23T00:01:34;11.43;;;5.80;;
20976;SDS011;10647;51.016;3.720;2022-07-23T00:04:04;10.80;;;5.90;;
20976;SDS011;10647;51.016;3.720;2022-07-23T00:06:31;11.93;;;5.80;;
20976;SDS011;10647;51.016;3.720;2022-07-23T00:09:01;9.60;;;5.53;;
20976;SDS011;10647;51.016;3.720;2022-07-23T00:11:28;12.03;;;5.77;;
20976;SDS011;10647;51.016;3.720;2022-07-23T00:13:56;8.53;;;5.90;;
20976;SDS011;10647;51.016;3.720;2022-07-23T00:16:23;10.10;;;6.20;;
20976;SDS011;10647;51.016;3.720;2022-07-23T00:18:51;9.47;;;6.50;;
20976;SDS011;10647;51.016;3.720;2022-07-23T00:21:18;11.37;;;6.40;;
20976;SDS011;10647;51.016;3.720;2022-07-23T00:23:46;10.53;;;6.30;;
20976;SDS011;10647;51.016;3.720;2022-07-23T00:26:15;10.50;;;5.77;;
20976;SDS011;10647;51.016;3.720;2022-07-23T00:28:42;9.73;;;6.20;;
20976;SDS011;10647;51.016;3.720;2022-07-23T00:31:10;12.67;;;6.40;;
20976;SDS011;10647;51.016;3.720;2022-07-23T00:33:41;10.37;;;5.77;;
20976;SDS011;10647;51.016;3.720;2022-07-23T00:36:08;9.20;;;6.30;;
20976;SDS011;10647;51.016;3.720;2022-07-23T00:38:36;11.23;;;6.43;;
20976;SDS011;10647;51.016;3.720;2022-07-23T00:41:03;10.80;;;5.87;;
20976;SDS011;10647;51.016;3.720;2022-07-23T00:43:33;14.47;;;6.60;;
20976;SDS011;10647;51.016;3.720;2022-07-23T00:46:01;8.63;;;5.97;;
20976;SDS011;10647;51.016;3.720;2022-07-23T00:50:59;10.03;;;6.10;;
20976;SDS011;10647;51.016;3.720;2022-07-23T00:53:28;11.17;;;6.70;;
20976;SDS011;10647;51.016;3.720;2022-07-23T00:55:57;10.50;;;6.33;;
20976;SDS011;10647;51.016;3.720;2022-07-23T00:58:26;9.93;;;6.57;;
20976;SDS011;10647;51.016;3.720;2022-07-23T01:00:57;13.67;;;6.97;;
20976;SDS011;10647;51.016;3.720;2022-07-23T01:03:24;11.07;;;6.30;;
20976;SDS011;10647;51.016;3.720;2022-07-23T01:05:55;12.17;;;6.70;;
20976;SDS011;10647;51.016;3.720;2022-07-23T01:08:23;11.53;;;6.53;;
20976;SDS011;10647;51.016;3.720;2022-07-23T01:10:52;10.67;;;6.47;;
20976;SDS011;10647;51.016;3.720;2022-07-23T01:13:26;9.03;;;6.70;;
20976;SDS011;10647;51.016;3.720;2022-07-23T01:15:53;12.20;;;6.97;;
20976;SDS011;10647;51.016;3.720;2022-07-23T01:18:27;12.30;;;6.97;;
20976;SDS011;10647;51.016;3.720;2022-07-23T01:20:56;12.73;;;7.47;;
20976;SDS011;10647;51.016;3.720;2022-07-23T01:23:26;11.67;;;7.37;;
20976;SDS011;10647;51.016;3.720;2022-07-23T01:25:54;10.77;;;7.20;;
20976;SDS011;10647;51.016;3.720;2022-07-23T01:28:31;12.90;;;7.03;;
20976;SDS011;10647;51.016;3.720;2022-07-23T01:31:02;11.00;;;6.53;;
20976;SDS011;10647;51.016;3.720;2022-07-23T01:33:36;10.17;;;6.93;;
20976;SDS011;10647;51.016;3.720;2022-07-23T01:36:10;9.60;;;7.03;;
20976;SDS011;10647;51.016;3.720;2022-07-23T01:41:09;12.53;;;7.40;;
20976;SDS011;10647;51.016;3.720;2022-07-23T01:43:38;14.20;;;7.03;;
20976;SDS011;10647;51.016;3.720;2022-07-23T01:46:07;14.97;;;8.17;;
20976;SDS011;10647;51.016;3.720;2022-07-23T01:48:36;13.70;;;7.33;;
20976;SDS011;10647;51.016;3.720;2022-07-23T01:51:04;12.30;;;7.20;;
20976;SDS011;10647;51.016;3.720;2022-07-23T01:53:31;13.47;;;8.07;;
20976;SDS011;10647;51.016;3.720;2022-07-23T01:55:59;13.43;;;7.33;;
20976;SDS011;10647;51.016;3.720;2022-07-23T01:58:27;15.17;;;7.37;;
20976;SDS011;10647;51.016;3.720;2022-07-23T02:00:55;16.27;;;7.87;;
20976;SDS011;10647;51.016;3.720;2022-07-23T02:03:24;13.97;;;8.60;;
20976;SDS011;10647;51.016;3.720;2022-07-23T02:05:53;16.53;;;8.10;;
20976;SDS011;10647;51.016;3.720;2022-07-23T02:08:21;14.10;;;8.03;;
20976;SDS011;10647;51.016;3.720;2022-07-23T02:10:48;15.20;;;8.03;;
20976;SDS011;10647;51.016;3.720;2022-07-23T02:15:47;13.07;;;7.07;;
20976;SDS011;10647;51.016;3.720;2022-07-23T02:18:15;14.20;;;8.30;;
20976;SDS011;10647;51.016;3.720;2022-07-23T02:20:44;13.03;;;8.13;;
20976;SDS011;10647;51.016;3.720;2022-07-23T02:23:12;14.80;;;8.37;;
20976;SDS011;10647;51.016;3.720;2022-07-23T02:25:41;15.87;;;8.30;;
20976;SDS011;10647;51.016;3.720;2022-07-23T02:28:08;12.43;;;8.07;;
20976;SDS011;10647;51.016;3.720;2022-07-23T02:30:36;14.53;;;8.30;;
20976;SDS011;10647;51.016;3.720;2022-07-23T02:33:05;13.87;;;8.13;;
20976;SDS011;10647;51.016;3.720;2022-07-23T02:35:32;13.33;;;8.43;;
20976;SDS011;10647;51.016;3.720;2022-07-23T02:38:00;12.53;;;8.23;;
20976;SDS011;10647;51.016;3.720;2022-07-23T02:40:27;13.23;;;8.23;;
20976;SDS011;10647;51.016;3.720;2022-07-23T02:42:56;15.17;;;8.60;;
20976;SDS011;10647;51.016;3.720;2022-07-23T02:45:23;13.47;;;7.93;;
20976;SDS011;10647;51.016;3.720;2022-07-23T02:47:51;15.93;;;8.57;;
20976;SDS011;10647;51.016;3.720;2022-07-23T02:50:20;14.63;;;8.27;;
20976;SDS011;10647;51.016;3.720;2022-07-23T02:52:49;13.97;;;7.97;;
20976;SDS011;10647;51.016;3.720;2022-07-23T02:55:18;13.60;;;8.40;;
20976;SDS011;10647;51.016;3.720;2022-07-23T02:57:46;15.10;;;9.27;;
20976;SDS011;10647;51.016;3.720;2022-07-23T03:00:15;13.87;;;8.00;;
20976;SDS011;10647;51.016;3.720;2022-07-23T03:02:44;13.80;;;8.43;;
20976;SDS011;10647;51.016;3.720;2022-07-23T03:05:18;14.70;;;8.10;;
20976;SDS011;10647;51.016;3.720;2022-07-23T03:07:45;15.07;;;8.60;;
20976;SDS011;10647;51.016;3.720;2022-07-23T03:10:13;14.37;;;8.63;;
20976;SDS011;10647;51.016;3.720;2022-07-23T03:12:41;16.00;;;8.80;;
20976;SDS011;10647;51.016;3.720;2022-07-23T03:15:11;15.47;;;7.97;;
20976;SDS011;10647;51.016;3.720;2022-07-23T03:17:40;14.13;;;9.20;;
20976;SDS011;10647;51.016;3.720;2022-07-23T03:20:07;20.37;;;8.80;;
20976;SDS011;10647;51.016;3.720;2022-07-23T03:25:17;15.30;;;8.90;;
20976;SDS011;10647;51.016;3.720;2022-07-23T03:30:23;18.57;;;8.90;;
20976;SDS011;10647;51.016;3.720;2022-07-23T03:32:51;18.63;;;8.60;;
20976;SDS011;10647;51.016;3.720;2022-07-23T03:35:19;13.43;;;8.80;;
20976;SDS011;10647;51.016;3.720;2022-07-23T03:37:46;14.90;;;8.67;;
20976;SDS011;10647;51.016;3.720;2022-07-23T03:40:14;17.80;;;8.50;;
20976;SDS011;10647;51.016;3.720;2022-07-23T03:42:42;14.73;;;8.90;;
20976;SDS011;10647;51.016;3.720;2022-07-23T03:45:14;16.93;;;9.17;;
20976;SDS011;10647;51.016;3.720;2022-07-23T03:47:43;16.13;;;9.10;;
20976;SDS011;10647;51.016;3.720;2022-07-23T03:50:12;15.93;;;8.90;;
20976;SDS011;10647;51.016;3.720;2022-07-23T03:52:40;16.03;;;8.60;;
20976;SDS011;10647;51.016;3.720;2022-07-23T03:55:08;15.20;;;8.97;;
20976;SDS011;10647;51.016;3.720;2022-07-23T03:57:37;18.70;;;9.90;;
20976;SDS011;10647;51.016;3.720;2022-07-23T04:00:05;18.27;;;9.30;;
20976;SDS011;10647;51.016;3.720;2022-07-23T04:02:35;18.97;;;8.87;;
20976;SDS011;10647;51.016;3.720;2022-07-23T04:05:04;19.23;;;9.97;;
20976;SDS011;10647;51.016;3.720;2022-07-23T04:07:32;15.77;;;9.23;;
20976;SDS011;10647;51.016;3.720;2022-07-23T04:09:59;20.87;;;9.83;;
20976;SDS011;10647;51.016;3.720;2022-07-23T04:12:28;17.37;;;9.03;;
20976;SDS011;10647;51.016;3.720;2022-07-23T04:14:56;19.50;;;9.70;;
20976;SDS011;10647;51.016;3.720;2022-07-23T04:17:23;16.20;;;9.30;;
20976;SDS011;10647;51.016;3.720;2022-07-23T04:19:52;16.20;;;9.53;;
20976;SDS011;10647;51.016;3.720;2022-07-23T04:22:19;16.53;;;9.20;;
20976;SDS011;10647;51.016;3.720;2022-07-23T04:24:47;18.80;;;8.87;;
20976;SDS011;10647;51.016;3.720;2022-07-23T04:27:16;14.70;;;8.87;;
20976;SDS011;10647;51.016;3.720;2022-07-23T04:29:43;15.83;;;8.77;;
20976;SDS011;10647;51.016;3.720;2022-07-23T04:32:11;17.87;;;9.13;;
20976;SDS011;10647;51.016;3.720;2022-07-23T04:34:38;17.00;;;9.30;;
20976;SDS011;10647;51.016;3.720;2022-07-23T04:37:17;14.23;;;8.70;;
20976;SDS011;10647;51.016;3.720;2022-07-23T04:39:46;16.00;;;9.63;;
20976;SDS011;10647;51.016;3.720;2022-07-23T04:42:20;15.43;;;9.37;;
20976;SDS011;10647;51.016;3.720;2022-07-23T04:44:49;17.63;;;8.87;;
20976;SDS011;10647;51.016;3.720;2022-07-23T04:47:18;18.97;;;8.83;;
20976;SDS011;10647;51.016;3.720;2022-07-23T04:49:46;13.43;;;8.03;;
20976;SDS011;10647;51.016;3.720;2022-07-23T04:52:19;15.17;;;8.33;;
20976;SDS011;10647;51.016;3.720;2022-07-23T04:54:47;13.80;;;8.17;;
20976;SDS011;10647;51.016;3.720;2022-07-23T04:57:14;15.30;;;8.87;;
20976;SDS011;10647;51.016;3.720;2022-07-23T04:59:43;13.33;;;7.30;;
20976;SDS011;10647;51.016;3.720;2022-07-23T05:02:14;11.90;;;7.77;;
20976;SDS011;10647;51.016;3.720;2022-07-23T05:04:41;17.57;;;8.43;;
20976;SDS011;10647;51.016;3.720;2022-07-23T05:09:39;18.37;;;10.00;;
20976;SDS011;10647;51.016;3.720;2022-07-23T05:12:07;18.50;;;10.03;;
20976;SDS011;10647;51.016;3.720;2022-07-23T05:14:35;18.10;;;10.13;;
20976;SDS011;10647;51.016;3.720;2022-07-23T05:17:02;16.97;;;10.63;;
20976;SDS011;10647;51.016;3.720;2022-07-23T05:19:30;17.27;;;10.07;;
20976;SDS011;10647;51.016;3.720;2022-07-23T05:21:57;17.53;;;9.73;;
20976;SDS011;10647;51.016;3.720;2022-07-23T05:24:26;16.37;;;9.50;;
20976;SDS011;10647;51.016;3.720;2022-07-23T05:26:53;15.67;;;9.70;;
20976;SDS011;10647;51.016;3.720;2022-07-23T05:29:22;15.63;;;9.67;;
20976;SDS011;10647;51.016;3.720;2022-07-23T05:31:49;15.00;;;9.43;;
20976;SDS011;10647;51.016;3.720;2022-07-23T05:34:17;17.83;;;9.27;;
20976;SDS011;10647;51.016;3.720;2022-07-23T05:36:45;16.83;;;9.73;;
20976;SDS011;10647;51.016;3.720;2022-07-23T05:39:12;20.05;;;9.93;;
20976;SDS011;10647;51.016;3.720;2022-07-23T05:41:40;14.10;;;8.97;;
20976;SDS011;10647;51.016;3.720;2022-07-23T05:44:07;18.77;;;9.35;;
20976;SDS011;10647;51.016;3.720;2022-07-23T05:46:40;13.22;;;8.88;;
20976;SDS011;10647;51.016;3.720;2022-07-23T05:49:09;15.80;;;9.33;;
20976;SDS011;10647;51.016;3.720;2022-07-23T05:54:07;12.78;;;8.80;;
20976;SDS011;10647;51.016;3.720;2022-07-23T05:56:34;11.93;;;8.90;;
20976;SDS011;10647;51.016;3.720;2022-07-23T05:59:02;15.13;;;9.08;;
20976;SDS011;10647;51.016;3.720;2022-07-23T06:01:29;14.38;;;9.40;;
20976;SDS011;10647;51.016;3.720;2022-07-23T06:03:57;15.75;;;9.50;;
20976;SDS011;10647;51.016;3.720;2022-07-23T06:06:24;14.80;;;9.80;;
20976;SDS011;10647;51.016;3.720;2022-07-23T06:08:52;15.20;;;9.73;;
20976;SDS011;10647;51.016;3.720;2022-07-23T06:11:20;15.28;;;9.45;;
20976;SDS011;10647;51.016;3.720;2022-07-23T06:13:47;15.48;;;8.80;;
20976;SDS011;10647;51.016;3.720;2022-07-23T06:16:16;15.08;;;8.90;;
20976;SDS011;10647;51.016;3.720;2022-07-23T06:18:44;14.70;;;9.30;;
20976;SDS011;10647;51.016;3.720;2022-07-23T06:21:11;13.90;;;8.73;;
20976;SDS011;10647;51.016;3.720;2022-07-23T06:23:39;14.87;;;9.45;;
20976;SDS011;10647;51.016;3.720;2022-07-23T06:26:07;15.50;;;9.35;;
20976;SDS011;10647;51.016;3.720;2022-07-23T06:28:40;14.90;;;8.73;;
20976;SDS011;10647;51.016;3.720;2022-07-23T06:31:08;13.43;;;8.95;;
20976;SDS011;10647;51.016;3.720;2022-07-23T06:33:35;15.48;;;8.73;;
20976;SDS011;10647;51.016;3.720;2022-07-23T06:36:03;15.40;;;9.43;;
20976;SDS011;10647;51.016;3.720;2022-07-23T06:38:31;12.33;;;8.60;;
20976;SDS011;10647;51.016;3.720;2022-07-23T06:41:01;16.02;;;8.18;;
20976;SDS011;10647;51.016;3.720;2022-07-23T06:43:30;16.93;;;8.30;;
20976;SDS011;10647;51.016;3.720;2022-07-23T06:45:57;15.00;;;8.45;;
20976;SDS011;10647;51.016;3.720;2022-07-23T06:48:25;12.25;;;7.92;;
20976;SDS011;10647;51.016;3.720;2022-07-23T06:50:53;14.15;;;8.50;;
20976;SDS011;10647;51.016;3.720;2022-07-23T06:53:23;13.58;;;7.70;;
20976;SDS011;10647;51.016;3.720;2022-07-23T06:55:50;11.95;;;8.20;;
20976;SDS011;10647;51.016;3.720;2022-07-23T06:58:18;12.82;;;8.45;;
20976;SDS011;10647;51.016;3.720;2022-07-23T07:00:46;12.95;;;8.45;;
20976;SDS011;10647;51.016;3.720;2022-07-23T07:03:16;12.50;;;7.83;;
20976;SDS011;10647;51.016;3.720;2022-07-23T07:05:44;14.18;;;8.68;;
20976;SDS011;10647;51.016;3.720;2022-07-23T07:08:12;11.65;;;7.97;;
20976;SDS011;10647;51.016;3.720;2022-07-23T07:10:39;11.08;;;8.10;;
20976;SDS011;10647;51.016;3.720;2022-07-23T07:13:07;14.68;;;8.10;;
20976;SDS011;10647;51.016;3.720;2022-07-23T07:15:36;17.05;;;8.35;;
20976;SDS011;10647;51.016;3.720;2022-07-23T07:18:04;11.35;;;7.72;;
20976;SDS011;10647;51.016;3.720;2022-07-23T07:20:39;14.43;;;7.67;;
20976;SDS011;10647;51.016;3.720;2022-07-23T07:25:43;13.03;;;7.90;;
20976;SDS011;10647;51.016;3.720;2022-07-23T07:28:11;11.00;;;7.75;;
20976;SDS011;10647;51.016;3.720;2022-07-23T07:30:40;10.82;;;7.17;;
20976;SDS011;10647;51.016;3.720;2022-07-23T07:35:38;11.75;;;7.92;;
20976;SDS011;10647;51.016;3.720;2022-07-23T07:38:13;10.15;;;7.72;;
20976;SDS011;10647;51.016;3.720;2022-07-23T07:40:48;11.95;;;7.42;;
20976;SDS011;10647;51.016;3.720;2022-07-23T07:43:18;14.90;;;7.78;;
20976;SDS011;10647;51.016;3.720;2022-07-23T07:45:53;12.28;;;7.70;;
20976;SDS011;10647;51.016;3.720;2022-07-23T07:48:23;11.73;;;7.03;;
20976;SDS011;10647;51.016;3.720;2022-07-23T07:50:57;11.80;;;7.95;;
20976;SDS011;10647;51.016;3.720;2022-07-23T07:53:32;12.03;;;7.80;;
20976;SDS011;10647;51.016;3.720;2022-07-23T07:56:28;14.43;;;7.62;;
20976;SDS011;10647;51.016;3.720;2022-07-23T07:59:15;11.65;;;7.87;;
20976;SDS011;10647;51.016;3.720;2022-07-23T08:01:52;16.77;;;7.65;;
20976;SDS011;10647;51.016;3.720;2022-07-23T08:04:22;11.53;;;8.05;;
20976;SDS011;10647;51.016;3.720;2022-07-23T08:06:52;13.15;;;8.05;;
20976;SDS011;10647;51.016;3.720;2022-07-23T08:09:19;10.32;;;8.13;;
20976;SDS011;10647;51.016;3.720;2022-07-23T08:11:52;12.30;;;8.33;;
20976;SDS011;10647;51.016;3.720;2022-07-23T08:14:22;11.78;;;8.55;;
20976;SDS011;10647;51.016;3.720;2022-07-23T08:16:51;15.28;;;8.50;;
20976;SDS011;10647;51.016;3.720;2022-07-23T08:19:24;11.20;;;8.35;;
20976;SDS011;10647;51.016;3.720;2022-07-23T08:21:56;14.28;;;8.38;;
20976;SDS011;10647;51.016;3.720;2022-07-23T08:24:34;12.20;;;7.70;;
20976;SDS011;10647;51.016;3.720;2022-07-23T08:27:11;10.80;;;7.70;;
20976;SDS011;10647;51.016;3.720;2022-07-23T08:29:43;9.18;;;7.03;;
20976;SDS011;10647;51.016;3.720;2022-07-23T08:32:11;9.25;;;6.72;;
20976;SDS011;10647;51.016;3.720;2022-07-23T08:34:41;10.95;;;6.85;;
20976;SDS011;10647;51.016;3.720;2022-07-23T08:37:19;9.38;;;6.45;;
20976;SDS011;10647;51.016;3.720;2022-07-23T08:39:49;10.23;;;6.45;;
20976;SDS011;10647;51.016;3.720;2022-07-23T08:42:17;9.35;;;6.47;;
20976;SDS011;10647;51.016;3.720;2022-07-23T08:44:47;9.45;;;6.40;;
20976;SDS011;10647;51.016;3.720;2022-07-23T08:47:17;10.98;;;6.62;;
20976;SDS011;10647;51.016;3.720;2022-07-23T08:49:46;6.90;;;5.30;;
20976;SDS011;10647;51.016;3.720;2022-07-23T08:52:26;10.00;;;6.33;;
20976;SDS011;10647;51.016;3.720;2022-07-23T08:54:58;12.13;;;6.22;;
20976;SDS011;10647;51.016;3.720;2022-07-23T08:57:33;8.18;;;5.08;;
20976;SDS011;10647;51.016;3.720;2022-07-23T09:00:07;6.62;;;4.12;;
20976;SDS011;10647;51.016;3.720;2022-07-23T09:02:38;8.78;;;5.22;;
20976;SDS011;10647;51.016;3.720;2022-07-23T09:05:11;8.15;;;4.65;;
20976;SDS011;10647;51.016;3.720;2022-07-23T09:11:01;6.92;;;5.20;;
20976;SDS011;10647;51.016;3.720;2022-07-23T09:13:53;8.28;;;4.30;;
20976;SDS011;10647;51.016;3.720;2022-07-23T09:16:28;8.70;;;5.08;;
20976;SDS011;10647;51.016;3.720;2022-07-23T09:21:33;7.85;;;5.33;;
20976;SDS011;10647;51.016;3.720;2022-07-23T09:24:12;7.42;;;5.28;;
20976;SDS011;10647;51.016;3.720;2022-07-23T09:26:43;10.58;;;4.47;;
20976;SDS011;10647;51.016;3.720;2022-07-23T09:29:20;8.85;;;4.78;;
20976;SDS011;10647;51.016;3.720;2022-07-23T09:31:58;6.40;;;3.55;;
20976;SDS011;10647;51.016;3.720;2022-07-23T09:34:33;4.83;;;3.52;;
20976;SDS011;10647;51.016;3.720;2022-07-23T09:37:16;7.58;;;3.52;;
20976;SDS011;10647;51.016;3.720;2022-07-23T09:39:49;4.78;;;3.40;;
20976;SDS011;10647;51.016;3.720;2022-07-23T09:44:52;8.23;;;4.67;;
20976;SDS011;10647;51.016;3.720;2022-07-23T09:47:35;7.50;;;4.33;;
20976;SDS011;10647;51.016;3.720;2022-07-23T09:50:09;8.38;;;3.90;;
20976;SDS011;10647;51.016;3.720;2022-07-23T09:52:48;6.10;;;4.10;;
20976;SDS011;10647;51.016;3.720;2022-07-23T09:57:48;6.25;;;3.67;;
20976;SDS011;10647;51.016;3.720;2022-07-23T10:00:38;5.78;;;3.50;;
20976;SDS011;10647;51.016;3.720;2022-07-23T10:03:10;4.62;;;3.67;;
20976;SDS011;10647;51.016;3.720;2022-07-23T10:05:42;8.55;;;3.55;;
20976;SDS011;10647;51.016;3.720;2022-07-23T10:08:16;6.53;;;3.58;;
20976;SDS011;10647;51.016;3.720;2022-07-23T10:10:40;5.25;;;3.75;;
20976;SDS011;10647;51.016;3.720;2022-07-23T10:13:09;4.75;;;2.95;;
20976;SDS011;10647;51.016;3.720;2022-07-23T10:15:40;4.67;;;3.12;;
20976;SDS011;10647;51.016;3.720;2022-07-23T10:18:15;5.72;;;3.00;;
20976;SDS011;10647;51.016;3.720;2022-07-23T10:20:42;5.75;;;3.77;;
20976;SDS011;10647;51.016;3.720;2022-07-23T10:23:17;7.97;;;3.30;;
20976;SDS011;10647;51.016;3.720;2022-07-23T10:31:20;4.85;;;2.95;;
20976;SDS011;10647;51.016;3.720;2022-07-23T10:33:56;4.58;;;2.50;;
20976;SDS011;10647;51.016;3.720;2022-07-23T10:39:19;4.90;;;2.87;;
20976;SDS011;10647;51.016;3.720;2022-07-23T10:41:48;5.35;;;3.40;;
20976;SDS011;10647;51.016;3.720;2022-07-23T10:44:18;4.78;;;2.60;;
20976;SDS011;10647;51.016;3.720;2022-07-23T10:49:51;3.72;;;2.25;;
20976;SDS011;10647;51.016;3.720;2022-07-23T10:52:26;3.33;;;2.10;;
20976;SDS011;10647;51.016;3.720;2022-07-23T10:54:55;3.67;;;2.20;;
20976;SDS011;10647;51.016;3.720;2022-07-23T10:57:27;3.15;;;2.33;;
20976;SDS011;10647;51.016;3.720;2022-07-23T11:02:41;3.42;;;2.60;;
20976;SDS011;10647;51.016;3.720;2022-07-23T11:05:15;3.92;;;2.40;;
20976;SDS011;10647;51.016;3.720;2022-07-23T11:10:38;3.98;;;2.60;;
20976;SDS011;10647;51.016;3.720;2022-07-23T11:13:25;3.62;;;2.45;;
20976;SDS011;10647;51.016;3.720;2022-07-23T11:16:13;4.05;;;2.62;;
20976;SDS011;10647;51.016;3.720;2022-07-23T11:24:08;5.75;;;2.70;;
20976;SDS011;10647;51.016;3.720;2022-07-23T11:32:01;5.03;;;2.80;;
20976;SDS011;10647;51.016;3.720;2022-07-23T11:34:40;2.70;;;2.20;;
20976;SDS011;10647;51.016;3.720;2022-07-23T11:37:10;7.72;;;4.00;;
20976;SDS011;10647;51.016;3.720;2022-07-23T11:39:38;5.78;;;3.30;;
20976;SDS011;10647;51.016;3.720;2022-07-23T11:42:06;4.42;;;3.50;;
20976;SDS011;10647;51.016;3.720;2022-07-23T11:44:36;4.47;;;3.55;;
20976;SDS011;10647;51.016;3.720;2022-07-23T11:47:05;6.25;;;3.47;;
20976;SDS011;10647;51.016;3.720;2022-07-23T11:49:38;5.90;;;3.80;;
20976;SDS011;10647;51.016;3.720;2022-07-23T11:52:14;4.67;;;2.90;;
20976;SDS011;10647;51.016;3.720;2022-07-23T11:54:54;5.35;;;3.45;;
20976;SDS011;10647;51.016;3.720;2022-07-23T11:57:31;4.55;;;3.10;;
20976;SDS011;10647;51.016;3.720;2022-07-23T12:00:16;3.67;;;2.77;;
20976;SDS011;10647;51.016;3.720;2022-07-23T12:02:51;4.95;;;2.98;;
20976;SDS011;10647;51.016;3.720;2022-07-23T12:05:22;5.40;;;2.60;;
20976;SDS011;10647;51.016;3.720;2022-07-23T12:07:56;6.15;;;3.05;;
20976;SDS011;10647;51.016;3.720;2022-07-23T12:10:33;3.35;;;2.47;;
20976;SDS011;10647;51.016;3.720;2022-07-23T12:13:08;4.92;;;2.90;;
20976;SDS011;10647;51.016;3.720;2022-07-23T12:15:38;3.65;;;2.17;;
20976;SDS011;10647;51.016;3.720;2022-07-23T12:18:08;6.10;;;3.27;;
20976;SDS011;10647;51.016;3.720;2022-07-23T12:20:39;4.47;;;2.62;;
20976;SDS011;10647;51.016;3.720;2022-07-23T12:23:20;3.55;;;2.65;;
20976;SDS011;10647;51.016;3.720;2022-07-23T12:25:50;8.63;;;3.00;;
20976;SDS011;10647;51.016;3.720;2022-07-23T12:28:31;8.33;;;3.60;;
20976;SDS011;10647;51.016;3.720;2022-07-23T12:31:00;6.28;;;2.60;;
20976;SDS011;10647;51.016;3.720;2022-07-23T12:33:34;6.28;;;2.60;;
20976;SDS011;10647;51.016;3.720;2022-07-23T12:36:04;6.03;;;2.87;;
20976;SDS011;10647;51.016;3.720;2022-07-23T12:38:41;4.45;;;2.98;;
20976;SDS011;10647;51.016;3.720;2022-07-23T12:41:11;4.60;;;2.20;;
20976;SDS011;10647;51.016;3.720;2022-07-23T12:43:41;4.03;;;2.47;;
20976;SDS011;10647;51.016;3.720;2022-07-23T12:46:12;5.55;;;3.00;;
20976;SDS011;10647;51.016;3.720;2022-07-23T12:51:23;3.80;;;2.95;;
20976;SDS011;10647;51.016;3.720;2022-07-23T12:53:55;3.12;;;2.30;;
20976;SDS011;10647;51.016;3.720;2022-07-23T12:59:05;3.83;;;2.35;;
20976;SDS011;10647;51.016;3.720;2022-07-23T13:01:36;3.17;;;2.40;;
20976;SDS011;10647;51.016;3.720;2022-07-23T13:04:11;4.37;;;2.42;;
20976;SDS011;10647;51.016;3.720;2022-07-23T13:06:47;3.30;;;2.33;;
20976;SDS011;10647;51.016;3.720;2022-07-23T13:09:16;5.67;;;2.75;;
20976;SDS011;10647;51.016;3.720;2022-07-23T13:11:46;4.15;;;3.00;;
20976;SDS011;10647;51.016;3.720;2022-07-23T13:14:15;4.22;;;2.70;;
20976;SDS011;10647;51.016;3.720;2022-07-23T13:16:44;3.27;;;2.87;;
20976;SDS011;10647;51.016;3.720;2022-07-23T13:19:13;5.15;;;2.90;;
20976;SDS011;10647;51.016;3.720;2022-07-23T13:21:42;3.77;;;2.85;;
20976;SDS011;10647;51.016;3.720;2022-07-23T13:24:12;5.33;;;2.60;;
20976;SDS011;10647;51.016;3.720;2022-07-23T13:26:43;3.33;;;2.17;;
20976;SDS011;10647;51.016;3.720;2022-07-23T13:29:12;5.37;;;2.90;;
20976;SDS011;10647;51.016;3.720;2022-07-23T13:31:40;5.10;;;2.92;;
20976;SDS011;10647;51.016;3.720;2022-07-23T13:34:07;5.47;;;2.50;;
20976;SDS011;10647;51.016;3.720;2022-07-23T13:36:35;4.22;;;2.22;;
20976;SDS011;10647;51.016;3.720;2022-07-23T13:39:09;4.47;;;2.67;;
20976;SDS011;10647;51.016;3.720;2022-07-23T13:41:42;5.20;;;2.60;;
20976;SDS011;10647;51.016;3.720;2022-07-23T13:44:16;3.45;;;2.47;;
20976;SDS011;10647;51.016;3.720;2022-07-23T13:46:44;3.87;;;2.30;;
20976;SDS011;10647;51.016;3.720;2022-07-23T13:49:13;3.42;;;2.25;;
20976;SDS011;10647;51.016;3.720;2022-07-23T13:51:46;4.42;;;2.70;;
20976;SDS011;10647;51.016;3.720;2022-07-23T13:54:19;4.45;;;2.33;;
20976;SDS011;10647;51.016;3.720;2022-07-23T13:56:47;5.47;;;2.50;;
20976;SDS011;10647;51.016;3.720;2022-07-23T14:01:45;3.58;;;2.05;;
20976;SDS011;10647;51.016;3.720;2022-07-23T14:04:13;4.10;;;2.27;;
20976;SDS011;10647;51.016;3.720;2022-07-23T14:06:41;4.03;;;2.50;;
20976;SDS011;10647;51.016;3.720;2022-07-23T14:09:09;4.72;;;2.17;;
20976;SDS011;10647;51.016;3.720;2022-07-23T14:11:36;4.75;;;2.50;;
20976;SDS011;10647;51.016;3.720;2022-07-23T14:14:04;4.75;;;2.40;;
20976;SDS011;10647;51.016;3.720;2022-07-23T14:16:32;3.80;;;2.70;;
20976;SDS011;10647;51.016;3.720;2022-07-23T14:19:01;4.10;;;2.87;;
20976;SDS011;10647;51.016;3.720;2022-07-23T14:21:28;5.80;;;2.77;;
20976;SDS011;10647;51.016;3.720;2022-07-23T14:23:58;6.90;;;3.02;;
20976;SDS011;10647;51.016;3.720;2022-07-23T14:26:26;4.87;;;3.00;;
20976;SDS011;10647;51.016;3.720;2022-07-23T14:28:54;5.90;;;2.80;;
20976;SDS011;10647;51.016;3.720;2022-07-23T14:31:22;4.03;;;3.02;;
20976;SDS011;10647;51.016;3.720;2022-07-23T14:33:49;6.65;;;2.60;;
20976;SDS011;10647;51.016;3.720;2022-07-23T14:36:17;7.78;;;2.98;;
20976;SDS011;10647;51.016;3.720;2022-07-23T14:38:45;3.85;;;3.40;;
20976;SDS011;10647;51.016;3.720;2022-07-23T14:41:12;6.35;;;3.30;;
20976;SDS011;10647;51.016;3.720;2022-07-23T14:43:40;4.90;;;2.85;;
20976;SDS011;10647;51.016;3.720;2022-07-23T14:46:08;6.85;;;3.20;;
20976;SDS011;10647;51.016;3.720;2022-07-23T14:48:36;4.58;;;3.50;;
20976;SDS011;10647;51.016;3.720;2022-07-23T14:51:05;6.78;;;3.47;;
20976;SDS011;10647;51.016;3.720;2022-07-23T14:53:33;3.72;;;3.40;;
20976;SDS011;10647;51.016;3.720;2022-07-23T14:56:00;6.60;;;3.40;;
20976;SDS011;10647;51.016;3.720;2022-07-23T14:58:29;4.87;;;3.72;;
20976;SDS011;10647;51.016;3.720;2022-07-23T15:00:59;5.53;;;3.62;;
20976;SDS011;10647;51.016;3.720;2022-07-23T15:05:59;5.40;;;3.35;;
20976;SDS011;10647;51.016;3.720;2022-07-23T15:08:26;5.35;;;3.17;;
20976;SDS011;10647;51.016;3.720;2022-07-23T15:10:54;4.72;;;3.00;;
20976;SDS011;10647;51.016;3.720;2022-07-23T15:13:21;4.85;;;3.00;;
20976;SDS011;10647;51.016;3.720;2022-07-23T15:15:50;3.20;;;2.90;;
20976;SDS011;10647;51.016;3.720;2022-07-23T15:18:18;3.62;;;2.85;;
20976;SDS011;10647;51.016;3.720;2022-07-23T15:20:48;4.70;;;3.45;;
20976;SDS011;10647;51.016;3.720;2022-07-23T15:23:16;5.40;;;3.83;;
20976;SDS011;10647;51.016;3.720;2022-07-23T15:25:44;5.62;;;3.65;;
20976;SDS011;10647;51.016;3.720;2022-07-23T15:28:12;6.30;;;3.50;;
20976;SDS011;10647;51.016;3.720;2022-07-23T15:30:40;6.37;;;4.10;;
20976;SDS011;10647;51.016;3.720;2022-07-23T15:33:08;7.55;;;3.92;;
20976;SDS011;10647;51.016;3.720;2022-07-23T15:35:35;9.95;;;4.30;;
20976;SDS011;10647;51.016;3.720;2022-07-23T15:38:05;7.00;;;4.40;;
20976;SDS011;10647;51.016;3.720;2022-07-23T15:40:32;5.37;;;4.12;;
20976;SDS011;10647;51.016;3.720;2022-07-23T15:43:05;7.35;;;3.72;;
20976;SDS011;10647;51.016;3.720;2022-07-23T15:45:33;9.18;;;4.55;;
20976;SDS011;10647;51.016;3.720;2022-07-23T15:48:00;5.92;;;4.30;;
20976;SDS011;10647;51.016;3.720;2022-07-23T15:50:28;6.37;;;3.85;;
20976;SDS011;10647;51.016;3.720;2022-07-23T15:52:56;5.92;;;4.60;;
20976;SDS011;10647;51.016;3.720;2022-07-23T15:55:24;6.72;;;4.40;;
20976;SDS011;10647;51.016;3.720;2022-07-23T15:57:51;7.37;;;4.30;;
20976;SDS011;10647;51.016;3.720;2022-07-23T16:00:19;6.30;;;3.80;;
20976;SDS011;10647;51.016;3.720;2022-07-23T16:02:46;7.33;;;4.33;;
20976;SDS011;10647;51.016;3.720;2022-07-23T16:05:14;6.20;;;4.15;;
20976;SDS011;10647;51.016;3.720;2022-07-23T16:07:41;6.45;;;4.60;;
20976;SDS011;10647;51.016;3.720;2022-07-23T16:10:09;6.80;;;4.20;;